KMAN

Details ICAO KMAN
Name NAMPA MUNI
Region United States
Timezone America/Boise (UTC-6.0)
Plans Departing 14
Arriving 11
Stats Elevation 2,537 ft / 773 m (AMSL)
Location 43.581342° -116.523062°
Runways 1
Magnetic Variation 13.400° E
Sunrise 2018-05-24 12:14:16 UTC / 2018-05-24 06:14:16 Local
Sunset 2018-05-25 03:14:32 UTC / 2018-05-24 21:14:32 Local
Advertisement - Login to hide

Runways

ID Width Length Bearing (true) Bearing (mag) Surface Threshold Offset Overrun Length
11 75 ft / 23 m 4,994 ft / 1,522 m 125.74° 112.34° Asphalt 0 ft / 0 m 0 ft / 0 m
29 75 ft / 23 m 4,994 ft / 1,522 m 305.76° 292.36° Asphalt 0 ft / 0 m 0 ft / 0 m

Map

Weather


0- 5 10 15 20 25 30 35+ Temperature / ° C

Clouds and Precipitation
Forecast for 2018-05-24 12:00 UTC. Updated 2 hours ago

Ground ~20,000 ft ~40,000 ft Winds

METAR

KMAN 241035Z AUTO 00000KT 10SM CLR 13/12 A2995 RMK A01

TAF

Not found

Frequencies

Unicom 122.70 MHz CTAF/UNICOM
Approach 119.60 MHz BOISE APP/DEP
Warning: Do not use this data for real-world aviation or navigation. No guarantee of current accuracy is given.